Time;durP1;ratioP1;P1;durP2;ratioP2;P2;SDS_P1;SDS_P2;PMS_P1;PMS_P2;Temp;Humidity;BMP_temperature;BMP_pressure;BME280_temperature;BME280_humidity;BME280_pressure;Samples;Min_cycle;Max_cycle;Signal;HPM_P1;HPM_P2
2022/08/06 00:00:18;;;;;;;;;;;;;;;13.56;100.00;102509.88;2613884;36;19954;-47
2022/08/06 00:02:46;;;;;;;;;;;;;;;13.55;100.00;102513.56;2613142;36;19982;-48
2022/08/06 00:05:14;;;;;;;;;;;;;;;13.58;100.00;102508.78;2614322;36;19993;-46
2022/08/06 00:07:45;;;;;;;;;;;;;;;13.56;100.00;102516.16;2612892;36;19983;-45
2022/08/06 00:10:13;;;;;;;;;;;;;;;13.48;100.00;102521.28;2611808;36;20357;-46
2022/08/06 00:12:41;;;;;;;;;;;;;;;13.47;100.00;102522.25;2614540;36;19950;-48
2022/08/06 00:15:10;;;;;;;;;;;;;;;13.48;100.00;102534.78;2613999;36;20364;-45
2022/08/06 00:17:38;;;;;;;;;;;;;;;13.40;100.00;102529.97;2614466;36;19943;-45
2022/08/06 00:20:06;;;;;;;;;;;;;;;13.32;100.00;102541.31;2614445;36;19950;-48
2022/08/06 00:22:35;;;;;;;;;;;;;;;13.29;100.00;102541.56;2615829;36;20467;-48
2022/08/06 00:25:07;;;;;;;;;;;;;;;13.30;100.00;102535.16;2616118;36;19938;-47
2022/08/06 00:27:35;;;;;;;;;;;;;;;13.25;100.00;102550.84;2615547;31;19954;-45
2022/08/06 00:30:03;;;;;;;;;;;;;;;13.24;100.00;102551.81;2615843;36;19973;-48
2022/08/06 00:32:31;;;;;;;;;;;;;;;13.15;100.00;102549.81;2614368;31;20336;-49
2022/08/06 00:34:59;;;;;;;;;;;;;;;13.16;100.00;102556.91;2614914;31;19946;-47
2022/08/06 00:37:31;;;;;;;;;;;;;;;13.13;100.00;102546.31;2615756;31;19953;-46
2022/08/06 00:39:59;;;;;;;;;;;;;;;13.10;100.00;102551.97;2615738;36;19981;-46
2022/08/06 00:42:30;;;;;;;;;;;;;;;13.06;100.00;102561.25;2615337;36;19974;-45
2022/08/06 00:44:59;;;;;;;;;;;;;;;13.08;100.00;102562.88;2614873;36;20005;-49
2022/08/06 00:47:27;;;;;;;;;;;;;;;13.12;100.00;102560.84;2614805;36;20415;-46
2022/08/06 00:49:55;;;;;;;;;;;;;;;13.06;100.00;102563.97;2615188;36;19943;-47
2022/08/06 00:52:23;;;;;;;;;;;;;;;13.06;100.00;102559.44;2614366;36;19955;-48
2022/08/06 00:54:51;;;;;;;;;;;;;;;13.08;100.00;102565.59;2615043;36;19947;-45
2022/08/06 00:57:19;;;;;;;;;;;;;;;13.07;100.00;102563.00;2613877;36;19973;-46
2022/08/06 00:59:50;;;;;;;;;;;;;;;13.12;100.00;102568.94;2614074;36;20427;-47
2022/08/06 01:02:18;;;;;;;;;;;;;;;13.04;100.00;102574.88;2614593;31;19962;-46
2022/08/06 01:04:46;;;;;;;;;;;;;;;13.00;100.00;102580.63;2615591;36;19938;-47
2022/08/06 01:07:14;;;;;;;;;;;;;;;12.92;100.00;102582.03;2615989;36;20359;-53
2022/08/06 01:09:42;;;;;;;;;;;;;;;12.93;100.00;102591.88;2615333;31;19957;-44
2022/08/06 01:12:10;;;;;;;;;;;;;;;12.88;100.00;102591.34;2615417;36;19946;-47
2022/08/06 01:14:38;;;;;;;;;;;;;;;12.85;100.00;102588.84;2615334;36;20386;-46
2022/08/06 01:17:11;;;;;;;;;;;;;;;12.79;100.00;102597.38;2614296;36;20440;-47
2022/08/06 01:19:47;;;;;;;;;;;;;;;12.77;100.00;102591.25;2616186;36;20360;-47
2022/08/06 01:22:21;;;;;;;;;;;;;;;12.75;100.00;102591.34;2615448;36;19955;-46
2022/08/06 01:24:53;;;;;;;;;;;;;;;12.77;100.00;102593.94;2615238;36;19973;-46
2022/08/06 01:27:31;;;;;;;;;;;;;;;12.80;100.00;102599.13;2615372;36;19950;-47
2022/08/06 01:30:03;;;;;;;;;;;;;;;12.75;100.00;102602.16;2615875;36;19947;-46
2022/08/06 01:32:33;;;;;;;;;;;;;;;12.68;100.00;102605.41;2615583;31;19983;-49
2022/08/06 01:35:04;;;;;;;;;;;;;;;12.58;100.00;102606.03;2615190;31;19958;-45
2022/08/06 01:37:34;;;;;;;;;;;;;;;12.54;100.00;102607.19;2615040;36;19950;-46
2022/08/06 01:40:04;;;;;;;;;;;;;;;12.54;100.00;102609.03;2615531;36;19946;-46
2022/08/06 01:42:36;;;;;;;;;;;;;;;12.58;100.00;102613.28;2614773;36;19950;-45
2022/08/06 01:45:05;;;;;;;;;;;;;;;12.60;100.00;102614.03;2614497;36;19969;-47
2022/08/06 01:47:35;;;;;;;;;;;;;;;12.61;100.00;102610.34;2614055;36;20456;-47
2022/08/06 01:50:05;;;;;;;;;;;;;;;12.55;100.00;102605.38;2615504;36;19939;-48
2022/08/06 01:52:35;;;;;;;;;;;;;;;12.52;100.00;102616.41;2614791;36;19954;-48
2022/08/06 01:55:04;;;;;;;;;;;;;;;12.49;100.00;102608.50;2613875;36;19950;-48
2022/08/06 01:57:36;;;;;;;;;;;;;;;12.52;100.00;102617.25;2613916;31;19958;-44
2022/08/06 02:00:06;;;;;;;;;;;;;;;12.51;100.00;102620.06;2615274;36;19958;-50
2022/08/06 02:02:37;;;;;;;;;;;;;;;12.46;100.00;102622.22;2614620;36;19939;-48
2022/08/06 02:05:07;;;;;;;;;;;;;;;12.52;100.00;102619.09;2614652;36;19947;-45
2022/08/06 02:07:37;;;;;;;;;;;;;;;12.51;100.00;102625.47;2614668;36;19970;-45
2022/08/06 02:10:07;;;;;;;;;;;;;;;12.50;100.00;102618.31;2615140;31;19950;-46
2022/08/06 02:12:38;;;;;;;;;;;;;;;12.43;100.00;102617.91;2614360;36;19953;-46
2022/08/06 02:15:08;;;;;;;;;;;;;;;12.40;100.00;102620.81;2615124;36;20448;-44
2022/08/06 02:17:45;;;;;;;;;;;;;;;12.39;100.00;102621.78;2614070;36;19954;-47
2022/08/06 02:20:14;;;;;;;;;;;;;;;12.37;100.00;102627.28;2614197;36;20023;-47
2022/08/06 02:22:43;;;;;;;;;;;;;;;12.35;100.00;102620.25;2615063;36;20475;-46
2022/08/06 02:25:13;;;;;;;;;;;;;;;12.36;100.00;102624.69;2615253;36;19947;-45
2022/08/06 02:27:46;;;;;;;;;;;;;;;12.38;100.00;102617.34;2614979;36;19950;-48
2022/08/06 02:30:14;;;;;;;;;;;;;;;12.32;100.00;102626.72;2614802;31;19947;-48
2022/08/06 02:32:43;;;;;;;;;;;;;;;12.30;100.00;102627.81;2613252;36;19957;-48
2022/08/06 02:35:12;;;;;;;;;;;;;;;12.24;100.00;102621.84;2614886;36;19951;-48
2022/08/06 02:37:43;;;;;;;;;;;;;;;12.28;100.00;102622.50;2614224;36;19973;-47
2022/08/06 02:40:13;;;;;;;;;;;;;;;12.22;100.00;102623.78;2614926;36;19954;-47
2022/08/06 02:42:47;;;;;;;;;;;;;;;12.18;100.00;102619.56;2614289;36;19965;-48
2022/08/06 02:45:19;;;;;;;;;;;;;;;12.17;100.00;102622.38;2615357;31;19950;-48
2022/08/06 02:47:51;;;;;;;;;;;;;;;12.17;100.00;102616.97;2613593;36;19989;-47
2022/08/06 02:50:20;;;;;;;;;;;;;;;12.13;100.00;102610.03;2614692;31;19946;-49
2022/08/06 02:52:50;;;;;;;;;;;;;;;12.06;100.00;102615.84;2613763;36;19950;-46
2022/08/06 02:55:20;;;;;;;;;;;;;;;12.08;100.00;102613.91;2615218;36;19946;-47
2022/08/06 02:57:52;;;;;;;;;;;;;;;12.07;100.00;102622.09;2615034;36;19958;-48
2022/08/06 03:00:20;;;;;;;;;;;;;;;12.08;100.00;102623.84;2615009;36;19957;-47
2022/08/06 03:02:49;;;;;;;;;;;;;;;12.03;100.00;102620.59;2614059;36;19977;-47
2022/08/06 03:05:19;;;;;;;;;;;;;;;11.98;100.00;102628.13;2613127;36;19954;-48
2022/08/06 03:07:49;;;;;;;;;;;;;;;11.98;100.00;102626.28;2614912;36;19951;-46
2022/08/06 03:10:20;;;;;;;;;;;;;;;11.98;100.00;102623.59;2614769;36;19950;-48
2022/08/06 03:12:52;;;;;;;;;;;;;;;11.98;100.00;102633.53;2612628;36;19950;-46
2022/08/06 03:15:20;;;;;;;;;;;;;;;11.91;100.00;102633.91;2614864;36;19938;-48
2022/08/06 03:17:49;;;;;;;;;;;;;;;11.69;100.00;102641.66;2614865;36;19972;-45
2022/08/06 03:20:20;;;;;;;;;;;;;;;11.66;100.00;102640.03;2615063;36;19981;-44
2022/08/06 03:22:51;;;;;;;;;;;;;;;11.60;100.00;102637.75;2616344;36;20371;-47
2022/08/06 03:25:19;;;;;;;;;;;;;;;11.54;100.00;102641.69;2615435;36;19950;-45
2022/08/06 03:27:48;;;;;;;;;;;;;;;11.52;100.00;102648.16;2614539;36;19966;-45
2022/08/06 03:30:22;;;;;;;;;;;;;;;11.54;100.00;102641.69;2614961;36;19977;-47
2022/08/06 03:32:51;;;;;;;;;;;;;;;11.58;100.00;102643.22;2614046;36;19946;-46
2022/08/06 03:35:20;;;;;;;;;;;;;;;11.61;100.00;102652.09;2617205;31;20467;-50
2022/08/06 03:37:49;;;;;;;;;;;;;;;11.65;100.00;102645.53;2615751;36;20435;-50
2022/08/06 03:40:19;;;;;;;;;;;;;;;11.56;100.00;102655.09;2614990;31;19973;-47
2022/08/06 03:42:48;;;;;;;;;;;;;;;11.52;100.00;102654.41;2615028;36;20444;-51
2022/08/06 03:45:18;;;;;;;;;;;;;;;11.53;100.00;102658.84;2614605;31;19946;-48
2022/08/06 03:47:50;;;;;;;;;;;;;;;11.56;100.00;102664.03;2615200;36;19954;-54
2022/08/06 03:50:21;;;;;;;;;;;;;;;11.55;100.00;102656.03;2615927;31;20037;-51
2022/08/06 03:52:50;;;;;;;;;;;;;;;11.56;100.00;102650.53;2616329;36;20347;-51
2022/08/06 03:55:20;;;;;;;;;;;;;;;11.57;100.00;102657.69;2614673;36;19958;-51
2022/08/06 03:57:52;;;;;;;;;;;;;;;11.62;100.00;102662.78;2614860;36;19946;-46
2022/08/06 04:00:25;;;;;;;;;;;;;;;11.54;100.00;102652.47;2614947;36;20371;-50
2022/08/06 04:02:55;;;;;;;;;;;;;;;11.55;100.00;102664.97;2614822;36;19951;-48
2022/08/06 04:05:24;;;;;;;;;;;;;;;11.57;100.00;102667.56;2614047;31;19951;-50
2022/08/06 04:07:53;;;;;;;;;;;;;;;11.51;100.00;102674.25;2615321;36;19985;-46
2022/08/06 04:10:22;;;;;;;;;;;;;;;11.48;100.00;102674.41;2615058;31;19954;-47
2022/08/06 04:12:50;;;;;;;;;;;;;;;11.41;100.00;102673.09;2615135;36;20440;-47
2022/08/06 04:15:18;;;;;;;;;;;;;;;11.44;100.00;102678.31;2614776;36;19951;-46
2022/08/06 04:17:51;;;;;;;;;;;;;;;11.46;100.00;102676.38;2614632;36;19990;-47
2022/08/06 04:20:20;;;;;;;;;;;;;;;11.41;100.00;102683.91;2615270;36;20392;-48
2022/08/06 04:22:48;;;;;;;;;;;;;;;11.40;100.00;102677.63;2615075;36;19954;-47
2022/08/06 04:25:16;;;;;;;;;;;;;;;11.41;100.00;102683.91;2615607;36;19977;-46
2022/08/06 04:27:45;;;;;;;;;;;;;;;11.43;100.00;102686.50;2614881;36;20005;-45
2022/08/06 04:30:14;;;;;;;;;;;;;;;11.32;100.00;102682.63;2615457;36;19950;-49
2022/08/06 04:32:42;;;;;;;;;;;;;;;11.43;100.00;102684.66;2614900;36;20440;-46
2022/08/06 04:35:16;;;;;;;;;;;;;;;11.43;100.00;102686.50;2616086;36;20347;-47
2022/08/06 04:37:44;;;;;;;;;;;;;;;11.39;100.00;102696.59;2615876;36;20355;-46
2022/08/06 04:40:13;;;;;;;;;;;;;;;11.49;100.00;102692.34;2613941;36;19946;-46
2022/08/06 04:42:41;;;;;;;;;;;;;;;11.46;100.00;102694.38;2614226;36;19954;-47
2022/08/06 04:45:10;;;;;;;;;;;;;;;11.49;100.00;102695.03;2614914;31;19973;-46
2022/08/06 04:47:39;;;;;;;;;;;;;;;11.52;100.00;102694.00;2615487;36;19983;-47
2022/08/06 04:50:08;;;;;;;;;;;;;;;11.56;100.00;102687.44;2616529;31;20419;-47
2022/08/06 04:52:39;;;;;;;;;;;;;;;11.63;100.00;102698.69;2615639;36;19946;-46
2022/08/06 04:55:07;;;;;;;;;;;;;;;11.73;100.00;102702.53;2615212;36;19954;-48
2022/08/06 04:57:36;;;;;;;;;;;;;;;11.76;100.00;102699.63;2614922;36;19947;-47
2022/08/06 05:00:04;;;;;;;;;;;;;;;11.78;100.00;102707.63;2615046;36;19950;-47
2022/08/06 05:02:32;;;;;;;;;;;;;;;11.80;100.00;102711.97;2614842;36;19946;-47
2022/08/06 05:05:00;;;;;;;;;;;;;;;11.81;100.00;102707.47;2615409;31;19950;-47
2022/08/06 05:07:30;;;;;;;;;;;;;;;11.86;100.00;102725.06;2614921;36;19973;-45
2022/08/06 05:10:01;;;;;;;;;;;;;;;11.91;100.00;102709.44;2614679;36;19969;-46
2022/08/06 05:12:32;;;;;;;;;;;;;;;11.99;100.00;102718.91;2615475;36;20372;-50
2022/08/06 05:15:03;;;;;;;;;;;;;;;12.05;100.00;102721.22;2615243;36;19950;-48
2022/08/06 05:17:34;;;;;;;;;;;;;;;12.08;100.00;102712.91;2615108;36;19951;-46
2022/08/06 05:20:07;;;;;;;;;;;;;;;12.20;100.00;102722.88;2615828;36;20364;-45
2022/08/06 05:22:35;;;;;;;;;;;;;;;12.30;100.00;102725.00;2615547;36;19981;-47
2022/08/06 05:25:07;;;;;;;;;;;;;;;12.35;100.00;102725.56;2616022;36;19950;-47
2022/08/06 05:27:35;;;;;;;;;;;;;;;12.33;100.00;102727.50;2615478;36;19958;-49
2022/08/06 05:30:03;;;;;;;;;;;;;;;12.40;100.00;102736.94;2615414;31;19946;-49
2022/08/06 05:32:33;;;;;;;;;;;;;;;12.46;100.00;102741.91;2615205;36;20479;-51
2022/08/06 05:35:01;;;;;;;;;;;;;;;12.51;100.00;102738.91;2615394;31;19957;-52
2022/08/06 05:37:29;;;;;;;;;;;;;;;12.54;100.00;102744.09;2615260;36;19977;-47
2022/08/06 05:39:57;;;;;;;;;;;;;;;12.60;100.00;102747.25;2614985;36;20336;-48
2022/08/06 05:42:28;;;;;;;;;;;;;;;12.65;100.00;102751.47;2614476;36;19954;-46
2022/08/06 05:44:56;;;;;;;;;;;;;;;12.66;100.00;102748.69;2615078;31;19994;-47
2022/08/06 05:47:26;;;;;;;;;;;;;;;12.74;100.00;102751.72;2614660;36;19985;-48
2022/08/06 05:49:57;;;;;;;;;;;;;;;12.82;100.00;102753.03;2615670;36;20342;-48
2022/08/06 05:52:29;;;;;;;;;;;;;;;12.91;100.00;102757.81;2615291;31;20003;-47
2022/08/06 05:54:59;;;;;;;;;;;;;;;13.00;100.00;102757.19;2614147;36;19963;-45
2022/08/06 05:57:31;;;;;;;;;;;;;;;13.06;100.00;102761.28;2615007;36;20042;-45
2022/08/06 06:00:03;;;;;;;;;;;;;;;13.14;100.00;102764.34;2614760;31;19977;-45
2022/08/06 06:02:31;;;;;;;;;;;;;;;13.28;100.00;102766.06;2614360;36;19958;-47
2022/08/06 06:05:01;;;;;;;;;;;;;;;13.30;100.00;102766.84;2614053;36;19973;-47
2022/08/06 06:07:29;;;;;;;;;;;;;;;13.36;100.00;102768.31;2614919;36;19956;-47
2022/08/06 06:09:58;;;;;;;;;;;;;;;13.44;100.00;102765.91;2614461;36;20466;-47
2022/08/06 06:12:27;;;;;;;;;;;;;;;13.44;100.00;102761.38;2613991;36;19981;-47
2022/08/06 06:14:57;;;;;;;;;;;;;;;13.63;100.00;102770.88;2615788;31;20420;-48
2022/08/06 06:17:30;;;;;;;;;;;;;;;13.79;100.00;102770.66;2614225;36;19963;-49
2022/08/06 06:20:03;;;;;;;;;;;;;;;13.87;100.00;102765.56;2613727;36;20339;-45
2022/08/06 06:22:35;;;;;;;;;;;;;;;14.03;100.00;102768.03;2614283;31;19946;-47
2022/08/06 06:25:07;;;;;;;;;;;;;;;14.01;100.00;102765.41;2615300;31;19974;-47
2022/08/06 06:27:40;;;;;;;;;;;;;;;14.42;100.00;102773.31;2614941;36;19942;-47
2022/08/06 06:30:16;;;;;;;;;;;;;;;14.58;100.00;102773.03;2615258;36;19955;-47
2022/08/06 06:32:46;;;;;;;;;;;;;;;14.85;100.00;102768.25;2614002;36;19976;-47
2022/08/06 06:35:24;;;;;;;;;;;;;;;14.83;100.00;102762.09;2614003;36;20463;-51
2022/08/06 06:37:56;;;;;;;;;;;;;;;15.05;100.00;102766.72;2615126;36;19951;-48
2022/08/06 06:40:32;;;;;;;;;;;;;;;15.17;100.00;102774.88;2614738;36;19967;-49
2022/08/06 06:43:03;;;;;;;;;;;;;;;15.15;100.00;102768.69;2614360;36;19961;-48
2022/08/06 06:45:42;;;;;;;;;;;;;;;15.36;100.00;102763.47;2614825;36;20419;-48
2022/08/06 06:48:11;;;;;;;;;;;;;;;15.70;100.00;102767.06;2613903;36;19975;-46
2022/08/06 06:50:45;;;;;;;;;;;;;;;16.07;100.00;102774.97;2614778;36;20029;-46
2022/08/06 06:53:14;;;;;;;;;;;;;;;16.40;100.00;102765.03;2615112;36;19950;-46
2022/08/06 06:55:44;;;;;;;;;;;;;;;16.89;100.00;102764.66;2614285;36;19951;-46
2022/08/06 06:58:14;;;;;;;;;;;;;;;17.08;100.00;102763.94;2614607;36;19954;-45
2022/08/06 07:00:45;;;;;;;;;;;;;;;17.04;100.00;102771.47;2615586;36;19953;-50
2022/08/06 07:03:14;;;;;;;;;;;;;;;17.22;100.00;102768.16;2613222;36;19973;-48
2022/08/06 07:05:44;;;;;;;;;;;;;;;17.20;100.00;102772.88;2613739;36;20417;-47
2022/08/06 07:08:13;;;;;;;;;;;;;;;17.13;100.00;102767.94;2615134;36;20355;-47
2022/08/06 07:10:42;;;;;;;;;;;;;;;17.59;100.00;102773.94;2614966;36;20363;-49
2022/08/06 07:13:11;;;;;;;;;;;;;;;18.02;100.00;102775.63;2615326;31;20432;-45
2022/08/06 07:15:40;;;;;;;;;;;;;;;18.19;100.00;102770.50;2613800;36;20494;-44
2022/08/06 07:18:11;;;;;;;;;;;;;;;18.54;100.00;102769.13;2614483;36;19954;-47
2022/08/06 07:20:39;;;;;;;;;;;;;;;18.52;100.00;102782.91;2615323;36;19954;-47
2022/08/06 07:23:09;;;;;;;;;;;;;;;18.59;100.00;102776.88;2615904;36;19983;-47
2022/08/06 07:25:38;;;;;;;;;;;;;;;18.57;100.00;102782.47;2616114;36;19950;-47
2022/08/06 07:28:07;;;;;;;;;;;;;;;19.06;100.00;102777.03;2615681;36;19948;-47
2022/08/06 07:30:36;;;;;;;;;;;;;;;19.25;100.00;102770.69;2615406;31;20476;-48
2022/08/06 07:33:04;;;;;;;;;;;;;;;19.08;100.00;102783.22;2615180;36;20383;-47
2022/08/06 07:35:35;;;;;;;;;;;;;;;19.42;100.00;102780.00;2615910;31;19954;-47
2022/08/06 07:38:04;;;;;;;;;;;;;;;19.84;100.00;102784.19;2615853;31;19970;-44
2022/08/06 07:40:33;;;;;;;;;;;;;;;20.17;100.00;102785.47;2615035;31;19977;-49
2022/08/06 07:43:03;;;;;;;;;;;;;;;20.38;100.00;102787.91;2615182;36;19977;-47
2022/08/06 07:45:33;;;;;;;;;;;;;;;19.94;100.00;102779.53;2615690;36;19955;-50
2022/08/06 07:48:02;;;;;;;;;;;;;;;20.45;100.00;102782.69;2615130;36;19950;-46
2022/08/06 07:50:32;;;;;;;;;;;;;;;20.75;100.00;102778.75;2615813;36;19950;-49
2022/08/06 07:53:02;;;;;;;;;;;;;;;20.37;100.00;102779.88;2615469;36;20337;-46
2022/08/06 07:55:31;;;;;;;;;;;;;;;20.30;100.00;102779.63;2615710;36;20001;-47
2022/08/06 07:58:00;;;;;;;;;;;;;;;20.35;100.00;102782.75;2614790;36;19958;-47
2022/08/06 08:00:28;;;;;;;;;;;;;;;19.97;100.00;102787.44;2615561;36;19939;-54
2022/08/06 08:08:24;;;;;;;;;;;;;;;18.57;100.00;102793.38;2612546;36;20344;-47
2022/08/06 08:10:53;;;;;;;;;;;;;;;18.68;100.00;102795.97;2613086;36;20206;-46
2022/08/06 08:13:21;;;;;;;;;;;;;;;19.00;100.00;102785.81;2612852;36;19989;-47
2022/08/06 08:15:50;;;;;;;;;;;;;;;19.83;100.00;102788.81;2613472;36;19943;-48
2022/08/06 08:18:18;;;;;;;;;;;;;;;20.40;100.00;102785.88;2611774;36;20041;-47
2022/08/06 08:20:47;;;;;;;;;;;;;;;20.46;100.00;102796.22;2612381;36;19947;-48
2022/08/06 08:23:16;;;;;;;;;;;;;;;20.25;100.00;102793.75;2613699;36;19966;-46
2022/08/06 08:25:47;;;;;;;;;;;;;;;20.46;100.00;102795.34;2612169;36;19958;-49
2022/08/06 08:28:15;;;;;;;;;;;;;;;20.54;100.00;102792.72;2611406;36;19946;-50
2022/08/06 08:30:44;;;;;;;;;;;;;;;20.51;100.00;102794.88;2611553;36;19958;-52
2022/08/06 08:33:12;;;;;;;;;;;;;;;21.05;100.00;102795.75;2602551;36;19998;-49
2022/08/06 08:35:40;;;;;;;;;;;;;;;21.35;100.00;102799.94;2611268;31;19981;-47
2022/08/06 08:38:08;;;;;;;;;;;;;;;21.70;97.42;102800.00;2612062;31;20527;-47
2022/08/06 08:40:36;;;;;;;;;;;;;;;21.59;91.68;102803.91;2611787;36;19966;-47
2022/08/06 08:43:07;;;;;;;;;;;;;;;21.14;100.00;102804.91;2611078;36;19962;-47
2022/08/06 08:45:36;;;;;;;;;;;;;;;21.34;97.72;102800.09;2611284;36;19981;-48
2022/08/06 08:48:06;;;;;;;;;;;;;;;21.60;98.69;102805.63;2609456;31;19957;-46
2022/08/06 08:50:35;;;;;;;;;;;;;;;21.83;95.35;102803.19;2611615;36;20437;-47
2022/08/06 08:53:05;;;;;;;;;;;;;;;21.94;90.18;102802.03;2611246;36;19973;-46
2022/08/06 08:55:34;;;;;;;;;;;;;;;22.23;91.54;102803.50;2612290;36;19950;-49
2022/08/06 08:58:03;;;;;;;;;;;;;;;22.05;97.45;102809.97;2611428;36;19951;-51
2022/08/06 09:00:34;;;;;;;;;;;;;;;21.85;100.00;102805.78;2613760;31;20424;-46
2022/08/06 09:03:02;;;;;;;;;;;;;;;22.14;98.70;102801.75;2610913;36;19954;-47
2022/08/06 09:05:32;;;;;;;;;;;;;;;22.30;88.13;102810.03;2610793;36;20012;-52
2022/08/06 09:08:01;;;;;;;;;;;;;;;22.05;91.18;102804.50;2611660;36;19950;-50
2022/08/06 09:10:29;;;;;;;;;;;;;;;21.77;96.13;102805.72;2612719;36;19977;-48
2022/08/06 09:12:57;;;;;;;;;;;;;;;21.86;91.07;102805.59;2613926;36;19942;-47
2022/08/06 09:15:25;;;;;;;;;;;;;;;21.94;82.58;102813.00;2615062;36;19942;-49
2022/08/06 09:17:56;;;;;;;;;;;;;;;22.28;89.17;102817.59;2614704;36;19973;-46
2022/08/06 09:20:24;;;;;;;;;;;;;;;21.86;79.35;102815.69;2615606;36;20316;-46
2022/08/06 09:22:52;;;;;;;;;;;;;;;21.70;87.49;102811.84;2615445;36;19939;-47
2022/08/06 09:25:35;;;;;;;;;;;;;;;22.36;73.24;102827.75;2614734;36;19938;-47
2022/08/06 09:28:03;;;;;;;;;;;;;;;22.75;71.37;102828.03;2614220;36;19957;-50
2022/08/06 09:30:32;;;;;;;;;;;;;;;22.46;67.44;102833.13;2614137;36;19974;-48
2022/08/06 09:33:02;;;;;;;;;;;;;;;22.33;66.65;102828.94;2614132;36;20355;-50
2022/08/06 09:35:31;;;;;;;;;;;;;;;22.34;67.55;102824.34;2615342;36;19950;-48
2022/08/06 09:38:03;;;;;;;;;;;;;;;22.27;72.54;102829.56;2615857;31;20429;-47
2022/08/06 09:40:32;;;;;;;;;;;;;;;22.11;75.88;102832.25;2616328;31;20365;-47
2022/08/06 09:43:00;;;;;;;;;;;;;;;22.58;65.71;102820.78;2614886;36;19950;-47
2022/08/06 09:45:28;;;;;;;;;;;;;;;22.59;64.67;102825.25;2612886;36;20088;-49
2022/08/06 09:48:06;;;;;;;;;;;;;;;22.51;68.00;102825.22;2611377;36;19973;-50
2022/08/06 09:50:38;;;;;;;;;;;;;;;22.86;65.51;102818.59;2611113;31;19958;-47
2022/08/06 09:53:06;;;;;;;;;;;;;;;22.56;70.58;102825.59;2611355;36;19981;-48
2022/08/06 09:55:35;;;;;;;;;;;;;;;22.59;83.24;102822.50;2611775;36;20451;-48
2022/08/06 09:58:03;;;;;;;;;;;;;;;22.89;71.29;102822.88;2610747;36;19954;-46
2022/08/06 10:00:32;;;;;;;;;;;;;;;22.98;67.11;102821.88;2611408;31;20002;-47
2022/08/06 10:03:02;;;;;;;;;;;;;;;22.58;86.77;102815.28;2611693;36;20454;-51
2022/08/06 10:05:33;;;;;;;;;;;;;;;22.50;70.74;102821.63;2611118;36;20383;-47
2022/08/06 10:08:06;;;;;;;;;;;;;;;22.16;67.63;102818.94;2610913;36;19953;-48
2022/08/06 10:10:41;;;;;;;;;;;;;;;22.29;68.20;102822.06;2611687;36;19951;-49
2022/08/06 10:13:17;;;;;;;;;;;;;;;22.51;63.84;102814.25;2611353;31;19984;-47
2022/08/06 10:15:48;;;;;;;;;;;;;;;22.75;63.78;102819.78;2612769;36;20368;-48
2022/08/06 10:18:31;;;;;;;;;;;;;;;22.61;63.60;102825.94;2612836;36;19946;-46
2022/08/06 10:21:06;;;;;;;;;;;;;;;23.30;89.11;102817.44;2611403;36;19950;-47
2022/08/06 10:23:35;;;;;;;;;;;;;;;22.84;64.02;102823.41;2611557;36;19953;-47
2022/08/06 10:26:06;;;;;;;;;;;;;;;23.35;62.24;102816.91;2613098;36;19950;-45
2022/08/06 10:28:35;;;;;;;;;;;;;;;23.78;60.62;102817.53;2613477;36;20362;-46
2022/08/06 10:31:04;;;;;;;;;;;;;;;23.63;63.44;102817.41;2613618;36;19957;-47
2022/08/06 10:33:34;;;;;;;;;;;;;;;23.67;58.56;102815.97;2613664;36;20034;-51
2022/08/06 10:36:06;;;;;;;;;;;;;;;23.95;58.75;102823.84;2614271;36;19979;-49
2022/08/06 10:38:38;;;;;;;;;;;;;;;23.73;61.69;102812.56;2614069;36;19951;-47
2022/08/06 10:41:09;;;;;;;;;;;;;;;23.48;58.40;102813.63;2613470;36;19997;-46
2022/08/06 10:43:38;;;;;;;;;;;;;;;23.69;54.91;102808.44;2613962;36;19981;-51
2022/08/06 10:46:07;;;;;;;;;;;;;;;23.86;53.51;102802.91;2613846;36;19951;-47
2022/08/06 10:48:36;;;;;;;;;;;;;;;23.92;53.99;102811.28;2613038;36;19947;-48
2022/08/06 10:51:05;;;;;;;;;;;;;;;24.08;52.77;102807.63;2613816;36;19953;-49
2022/08/06 10:53:35;;;;;;;;;;;;;;;24.44;50.85;102801.59;2613621;36;19973;-48
2022/08/06 10:56:07;;;;;;;;;;;;;;;24.45;52.48;102814.31;2612537;36;19957;-48
2022/08/06 10:58:39;;;;;;;;;;;;;;;24.39;50.05;102811.44;2613127;36;19958;-48
2022/08/06 11:01:09;;;;;;;;;;;;;;;23.93;57.99;102809.41;2612916;36;19955;-47
2022/08/06 11:03:45;;;;;;;;;;;;;;;23.69;55.86;102811.19;2623701;36;19946;-50
2022/08/06 11:06:28;;;;;;;;;;;;;;;23.64;55.36;102810.00;2611705;36;19950;-50
2022/08/06 11:09:04;;;;;;;;;;;;;;;23.35;53.96;102806.78;2612092;36;19981;-48
2022/08/06 11:11:42;;;;;;;;;;;;;;;23.73;56.15;102809.81;2613423;36;19947;-47
2022/08/06 11:14:11;;;;;;;;;;;;;;;24.07;58.73;102811.44;2614281;31;19946;-47
2022/08/06 11:16:40;;;;;;;;;;;;;;;24.25;62.67;102796.56;2613733;36;19951;-46
2022/08/06 11:19:09;;;;;;;;;;;;;;;24.04;56.82;102803.53;2613624;31;20413;-51
2022/08/06 11:21:37;;;;;;;;;;;;;;;23.95;54.62;102797.22;2613842;36;19958;-47
2022/08/06 11:24:06;;;;;;;;;;;;;;;23.76;60.61;102806.69;2613196;31;19981;-48
2022/08/06 11:26:38;;;;;;;;;;;;;;;23.71;64.59;102806.34;2613424;31;20636;-46
2022/08/06 11:29:07;;;;;;;;;;;;;;;24.24;58.80;102801.19;2613728;36;19957;-47
2022/08/06 11:31:36;;;;;;;;;;;;;;;23.88;53.81;102798.97;2614632;36;19947;-48
2022/08/06 11:34:06;;;;;;;;;;;;;;;24.77;59.94;102792.28;2612224;36;20336;-49
2022/08/06 11:36:46;;;;;;;;;;;;;;;24.87;53.84;102790.16;2613284;36;19957;-48
2022/08/06 11:39:14;;;;;;;;;;;;;;;24.79;53.98;102793.84;2614786;36;19950;-49
2022/08/06 11:41:49;;;;;;;;;;;;;;;24.66;56.75;102793.56;2613339;36;19946;-45
2022/08/06 11:44:18;;;;;;;;;;;;;;;24.95;53.27;102791.97;2614333;36;19977;-50
2022/08/06 11:46:47;;;;;;;;;;;;;;;24.61;53.21;102787.75;2613589;36;19955;-50
2022/08/06 11:49:18;;;;;;;;;;;;;;;24.98;52.05;102783.34;2613547;36;20519;-50
2022/08/06 11:51:47;;;;;;;;;;;;;;;25.60;47.56;102784.97;2613492;36;19958;-49
2022/08/06 11:54:16;;;;;;;;;;;;;;;25.06;56.38;102782.41;2613834;36;19962;-48
2022/08/06 11:56:59;;;;;;;;;;;;;;;25.03;58.69;102797.41;2615584;31;19950;-49
2022/08/06 11:59:31;;;;;;;;;;;;;;;24.74;61.26;102799.00;2615087;36;19947;-49
2022/08/06 12:01:59;;;;;;;;;;;;;;;24.96;78.81;102788.19;2613940;36;20446;-47
2022/08/06 12:04:44;;;;;;;;;;;;;;;24.80;62.78;102791.91;2613238;36;19982;-54
2022/08/06 12:07:24;;;;;;;;;;;;;;;25.27;68.90;102785.31;2612899;36;19966;-50
2022/08/06 12:10:01;;;;;;;;;;;;;;;25.72;66.27;102788.09;2615628;36;20011;-49
2022/08/06 12:12:39;;;;;;;;;;;;;;;24.84;70.00;102791.38;2615236;36;19998;-48
2022/08/06 12:15:37;;;;;;;;;;;;;;;24.95;63.00;102789.22;2616135;36;19946;-54
2022/08/06 12:18:10;;;;;;;;;;;;;;;25.49;60.18;102794.59;2613816;36;19954;-47
2022/08/06 12:20:39;;;;;;;;;;;;;;;26.00;55.34;102782.81;2615152;36;20456;-49
2022/08/06 12:23:08;;;;;;;;;;;;;;;26.61;59.69;102787.13;2614483;31;20401;-48
2022/08/06 12:25:37;;;;;;;;;;;;;;;26.55;59.24;102791.50;2615787;36;19959;-50
2022/08/06 12:28:07;;;;;;;;;;;;;;;26.35;59.61;102783.03;2615162;36;19950;-51
2022/08/06 12:30:42;;;;;;;;;;;;;;;26.41;57.91;102786.88;2615430;31;19947;-48
2022/08/06 12:33:13;;;;;;;;;;;;;;;26.21;55.42;102782.00;2614503;36;20338;-48
2022/08/06 12:35:50;;;;;;;;;;;;;;;25.80;54.87;102774.22;2612991;36;19973;-51
2022/08/06 12:38:19;;;;;;;;;;;;;;;25.93;49.85;102789.25;2614261;36;19950;-49
2022/08/06 12:40:53;;;;;;;;;;;;;;;25.94;51.10;102769.75;2614721;36;20428;-50
2022/08/06 12:43:22;;;;;;;;;;;;;;;26.29;55.03;102778.25;2614522;36;19950;-47
2022/08/06 12:45:58;;;;;;;;;;;;;;;26.12;51.88;102774.03;2615165;36;20328;-52
2022/08/06 12:48:28;;;;;;;;;;;;;;;26.50;51.36;102771.94;2612826;36;19966;-50
2022/08/06 12:51:04;;;;;;;;;;;;;;;26.55;51.02;102766.66;2613989;36;20458;-46